Time;durP1;ratioP1;P1;durP2;ratioP2;P2;SDS_P1;SDS_P2;PMS_P1;PMS_P2;Temp;Humidity;BMP_temperature;BMP_pressure;BME280_temperature;BME280_humidity;BME280_pressure;Samples;Min_cycle;Max_cycle;Signal;HPM_P1;HPM_P2
2023/12/17 00:02:19;;;;;;;12.20;6.77;;;7.60;99.90;;;;;;5075748;28;20221;-44
2023/12/17 00:04:46;;;;;;;17.00;7.37;;;7.60;99.90;;;;;;5075138;28;20180;-44
2023/12/17 00:07:12;;;;;;;16.27;6.87;;;7.60;99.90;;;;;;5057449;28;20184;-43
2023/12/17 00:10:04;;;;;;;14.37;6.60;;;7.60;99.90;;;;;;5075050;28;20241;-44
2023/12/17 00:12:29;;;;;;;17.63;7.50;;;7.60;99.90;;;;;;5075118;28;20197;-43
2023/12/17 00:14:55;;;;;;;16.13;7.37;;;7.50;99.90;;;;;;5075186;28;20211;-44
2023/12/17 00:17:22;;;;;;;13.73;7.80;;;7.60;99.90;;;;;;5074883;28;20261;-45
2023/12/17 00:19:51;;;;;;;12.50;7.80;;;7.50;99.90;;;;;;5074965;28;20546;-45
2023/12/17 00:22:16;;;;;;;14.17;7.47;;;7.50;99.90;;;;;;5075057;28;20710;-44
2023/12/17 00:24:45;;;;;;;17.47;7.70;;;7.50;99.90;;;;;;5074655;28;20172;-44
2023/12/17 00:27:14;;;;;;;15.70;7.97;;;7.50;99.90;;;;;;5074602;28;20171;-44
2023/12/17 00:29:40;;;;;;;19.63;7.73;;;7.50;99.90;;;;;;5074115;28;20221;-42
2023/12/17 00:32:07;;;;;;;16.03;7.90;;;7.50;99.90;;;;;;5074557;28;20168;-47
2023/12/17 00:34:39;;;;;;;13.47;7.80;;;7.50;99.90;;;;;;5074754;28;20176;-45
2023/12/17 00:37:04;;;;;;;16.13;8.13;;;7.50;99.90;;;;;;5074411;28;20188;-45
2023/12/17 00:39:30;;;;;;;20.03;8.53;;;7.50;99.90;;;;;;5074890;28;20546;-44
2023/12/17 00:42:01;;;;;;;20.80;8.20;;;7.50;99.90;;;;;;5074288;28;20176;-47
2023/12/17 00:44:27;;;;;;;22.70;7.90;;;7.50;99.90;;;;;;5073746;28;20228;-45
2023/12/17 00:46:55;;;;;;;14.80;8.33;;;7.50;99.90;;;;;;5074217;28;20668;-45
2023/12/17 00:49:24;;;;;;;14.53;7.87;;;7.50;99.90;;;;;;5074126;28;20205;-43
2023/12/17 00:51:49;;;;;;;14.27;8.63;;;7.50;99.90;;;;;;5074197;28;20177;-46
2023/12/17 00:57:39;;;;;;;19.97;9.30;;;7.50;99.90;;;;;;5074737;28;20159;-45
2023/12/17 01:00:06;;;;;;;16.53;9.27;;;7.50;99.90;;;;;;5074172;28;20209;-46
2023/12/17 01:02:34;;;;;;;14.23;8.43;;;7.50;99.90;;;;;;5056192;28;20298;-44
2023/12/17 01:05:05;;;;;;;19.53;8.20;;;7.50;99.90;;;;;;5055955;28;20179;-45
2023/12/17 01:07:50;;;;;;;14.83;8.33;;;7.50;99.90;;;;;;5073780;28;20226;-44
2023/12/17 01:10:17;;;;;;;16.13;8.53;;;7.50;99.90;;;;;;5073985;28;20200;-43
2023/12/17 01:12:45;;;;;;;13.50;8.47;;;7.40;99.90;;;;;;5073929;28;20187;-45
2023/12/17 01:15:55;;;;;;;14.43;8.30;;;7.50;99.90;;;;;;5074017;28;20536;-43
2023/12/17 01:18:29;;;;;;;14.00;8.70;;;7.50;99.90;;;;;;5073918;28;20182;-45
2023/12/17 01:20:55;;;;;;;15.97;8.63;;;7.50;99.90;;;;;;5073655;28;20203;-43
2023/12/17 01:23:22;;;;;;;15.30;8.17;;;7.50;99.90;;;;;;5074046;28;20253;-45
2023/12/17 01:25:50;;;;;;;12.23;7.80;;;7.50;99.90;;;;;;5073627;28;20259;-44
2023/12/17 01:28:21;;;;;;;14.47;8.17;;;7.50;99.90;;;;;;5073513;28;20171;-44
2023/12/17 01:30:47;;;;;;;14.83;8.97;;;7.40;99.90;;;;;;5055552;28;20607;-44
2023/12/17 01:33:14;;;;;;;15.37;8.27;;;7.50;99.90;;;;;;5073773;28;20177;-43
2023/12/17 01:35:41;;;;;;;13.27;7.83;;;7.50;99.90;;;;;;5073546;28;20208;-44
2023/12/17 01:38:06;;;;;;;13.20;9.00;;;7.50;99.90;;;;;;5073447;28;20713;-44
2023/12/17 01:40:32;;;;;;;13.17;8.53;;;7.50;99.90;;;;;;5073366;28;20213;-43
2023/12/17 01:43:03;;;;;;;19.97;9.17;;;7.50;99.90;;;;;;5073282;28;20341;-44
2023/12/17 01:45:37;;;;;;;16.20;8.93;;;7.50;99.90;;;;;;5067643;28;20266;-44
2023/12/17 01:48:58;;;;;;;12.87;8.63;;;7.50;99.90;;;;;;5073615;28;20191;-44
2023/12/17 01:51:26;;;;;;;14.97;9.40;;;7.50;99.90;;;;;;5073527;28;20213;-45
2023/12/17 01:53:59;;;;;;;13.17;8.47;;;7.50;99.90;;;;;;5073586;28;20280;-44
2023/12/17 01:56:27;;;;;;;15.17;9.23;;;7.50;99.90;;;;;;5054178;28;20268;-45
2023/12/17 01:58:53;;;;;;;12.10;8.50;;;7.50;99.90;;;;;;5072980;28;20694;-42
2023/12/17 02:01:20;;;;;;;15.47;8.70;;;7.50;99.90;;;;;;5073232;28;20188;-45
2023/12/17 02:03:47;;;;;;;13.23;8.93;;;7.50;99.90;;;;;;5072895;28;20203;-43
2023/12/17 02:06:13;;;;;;;15.53;8.93;;;7.50;99.90;;;;;;5073191;28;20178;-43
2023/12/17 02:08:38;;;;;;;13.27;8.00;;;7.50;99.90;;;;;;5055202;28;20183;-43
2023/12/17 02:11:04;;;;;;;11.90;7.87;;;7.50;99.90;;;;;;5073686;28;20179;-43
2023/12/17 02:13:33;;;;;;;14.40;8.13;;;7.40;99.90;;;;;;5072169;28;20652;-44
2023/12/17 02:15:58;;;;;;;14.77;8.07;;;7.40;99.90;;;;;;5073077;28;20186;-44
2023/12/17 02:18:24;;;;;;;15.53;7.90;;;7.40;99.90;;;;;;5072998;28;20175;-45
2023/12/17 02:21:02;;;;;;;13.97;8.13;;;7.40;99.90;;;;;;5073132;28;20221;-44
2023/12/17 02:23:28;;;;;;;11.83;7.67;;;7.40;99.90;;;;;;5056153;28;20254;-44
2023/12/17 02:25:55;;;;;;;11.77;7.73;;;7.40;99.90;;;;;;5073249;28;20185;-45
2023/12/17 02:28:24;;;;;;;13.90;8.33;;;7.40;99.90;;;;;;5073014;28;20177;-45
2023/12/17 02:30:50;;;;;;;13.47;8.60;;;7.40;99.90;;;;;;5072806;28;20218;-46
2023/12/17 02:33:23;;;;;;;14.53;8.90;;;7.30;99.90;;;;;;5072780;28;20179;-44
2023/12/17 02:35:49;;;;;;;15.60;8.23;;;7.40;99.90;;;;;;5073070;28;20542;-43
2023/12/17 02:38:14;;;;;;;13.73;8.50;;;7.40;99.90;;;;;;5055264;28;20180;-44
2023/12/17 02:40:46;;;;;;;14.30;8.40;;;7.40;99.90;;;;;;5072809;28;20196;-44
2023/12/17 02:43:11;;;;;;;13.20;8.00;;;7.40;99.90;;;;;;5072832;28;20532;-44
2023/12/17 02:45:37;;;;;;;14.37;7.53;;;7.40;99.90;;;;;;5072746;28;20229;-45
2023/12/17 02:48:07;;;;;;;12.57;7.57;;;7.30;99.90;;;;;;5072992;28;20184;-44
2023/12/17 02:50:32;;;;;;;13.40;7.83;;;7.30;99.90;;;;;;5072966;28;20201;-45
2023/12/17 02:52:58;;;;;;;13.83;8.53;;;7.40;99.90;;;;;;5072981;28;20232;-47
2023/12/17 02:55:24;;;;;;;12.80;7.57;;;7.30;99.90;;;;;;5072921;28;20180;-46
2023/12/17 02:57:51;;;;;;;14.10;7.33;;;7.30;99.90;;;;;;5072930;28;20177;-44
2023/12/17 03:00:19;;;;;;;13.50;7.97;;;7.30;99.90;;;;;;5054707;28;20593;-44
2023/12/17 03:06:13;;;;;;;11.90;7.47;;;7.30;99.90;;;;;;5072704;28;20161;-45
2023/12/17 03:08:44;;;;;;;12.53;7.50;;;7.30;99.90;;;;;;5056530;28;20175;-45
2023/12/17 03:11:10;;;;;;;11.13;7.90;;;7.30;99.90;;;;;;5076285;28;20206;-45
2023/12/17 03:13:38;;;;;;;15.53;8.10;;;7.30;99.90;;;;;;5076247;28;20211;-44
2023/12/17 03:16:08;;;;;;;14.83;8.50;;;7.20;99.90;;;;;;5076686;28;20203;-44
2023/12/17 03:18:35;;;;;;;12.50;8.03;;;7.20;99.90;;;;;;5077258;28;20182;-44
2023/12/17 03:21:06;;;;;;;15.60;8.07;;;7.20;99.90;;;;;;5077274;28;20217;-46
2023/12/17 03:23:32;;;;;;;15.03;7.90;;;7.20;99.90;;;;;;5075876;28;20218;-43
2023/12/17 03:25:57;;;;;;;12.63;7.83;;;7.20;99.90;;;;;;5076150;28;20205;-42
2023/12/17 03:31:46;;;;;;;12.37;7.60;;;7.20;99.90;;;;;;5075741;28;20214;-43
2023/12/17 03:34:12;;;;;;;12.63;7.07;;;7.20;99.90;;;;;;5075913;28;20204;-43
2023/12/17 03:36:38;;;;;;;9.83;6.97;;;7.20;99.90;;;;;;5075672;28;20643;-44
2023/12/17 03:39:04;;;;;;;12.60;7.83;;;7.20;99.90;;;;;;5057732;28;20207;-43
2023/12/17 03:41:30;;;;;;;13.67;8.10;;;7.10;99.90;;;;;;5075795;28;20175;-45
2023/12/17 03:44:04;;;;;;;13.83;8.43;;;7.20;99.90;;;;;;5075394;28;20265;-44
2023/12/17 03:46:30;;;;;;;11.40;7.30;;;7.10;99.90;;;;;;5075515;28;20254;-45
2023/12/17 03:48:57;;;;;;;13.90;7.37;;;7.10;99.90;;;;;;5075323;28;20686;-45
2023/12/17 03:51:23;;;;;;;12.90;8.03;;;7.10;99.90;;;;;;5056973;28;20184;-44
2023/12/17 03:53:49;;;;;;;13.03;7.60;;;7.10;99.90;;;;;;5075616;28;20201;-43
2023/12/17 03:56:24;;;;;;;15.83;7.57;;;7.10;99.90;;;;;;5075303;28;20229;-45
2023/12/17 03:58:51;;;;;;;12.57;7.50;;;7.00;99.90;;;;;;5056863;28;20200;-46
2023/12/17 04:01:20;;;;;;;11.97;7.13;;;7.10;99.90;;;;;;5075491;28;20206;-43
2023/12/17 04:03:45;;;;;;;15.77;7.30;;;7.10;99.90;;;;;;5075141;28;20204;-45
2023/12/17 04:06:11;;;;;;;11.40;7.47;;;7.00;99.90;;;;;;5075301;28;20180;-45
2023/12/17 04:08:38;;;;;;;13.50;7.53;;;7.00;99.90;;;;;;5075054;28;20174;-45
2023/12/17 04:11:05;;;;;;;13.17;7.10;;;7.00;99.90;;;;;;5075459;28;20207;-44
2023/12/17 04:13:33;;;;;;;11.80;7.03;;;7.00;99.90;;;;;;5074984;28;20187;-43
2023/12/17 04:16:01;;;;;;;13.70;7.87;;;7.00;99.90;;;;;;5075254;28;20575;-45
2023/12/17 04:18:26;;;;;;;18.33;8.27;;;7.00;99.90;;;;;;5074939;28;20179;-45
2023/12/17 04:20:55;;;;;;;16.30;7.97;;;7.00;99.90;;;;;;5074483;28;20195;-43
2023/12/17 04:23:21;;;;;;;16.97;8.03;;;7.00;99.90;;;;;;5075130;28;20565;-45
2023/12/17 04:25:53;;;;;;;18.80;7.70;;;6.90;99.90;;;;;;5075011;28;20644;-44
2023/12/17 04:28:18;;;;;;;12.80;7.43;;;7.00;99.90;;;;;;5074550;28;20660;-45
2023/12/17 04:30:47;;;;;;;14.17;7.57;;;6.90;99.90;;;;;;5074752;28;20210;-42
2023/12/17 04:33:12;;;;;;;18.57;8.20;;;7.00;99.90;;;;;;5074713;28;20188;-43
2023/12/17 04:35:39;;;;;;;14.30;8.60;;;6.90;99.90;;;;;;5074443;28;20183;-43
2023/12/17 04:38:05;;;;;;;11.23;7.37;;;6.90;99.90;;;;;;5074715;28;20181;-43
2023/12/17 04:40:31;;;;;;;13.63;7.60;;;6.90;99.90;;;;;;5074286;28;20249;-44
2023/12/17 04:42:56;;;;;;;14.10;7.33;;;6.90;99.90;;;;;;5074285;28;20196;-44
2023/12/17 04:45:23;;;;;;;11.77;6.60;;;6.90;99.90;;;;;;5074259;28;20176;-43
2023/12/17 04:47:52;;;;;;;14.27;7.97;;;6.90;99.90;;;;;;5074244;28;20203;-44
2023/12/17 04:50:18;;;;;;;12.47;7.50;;;6.90;99.90;;;;;;5074170;28;20669;-43
2023/12/17 04:52:44;;;;;;;16.50;7.97;;;6.90;99.90;;;;;;5056561;28;20191;-44
2023/12/17 04:55:09;;;;;;;16.80;8.30;;;6.90;99.90;;;;;;5074070;28;20181;-45
2023/12/17 04:57:36;;;;;;;12.87;7.23;;;6.90;99.90;;;;;;5074206;28;20270;-44
2023/12/17 05:00:05;;;;;;;10.23;7.00;;;6.90;99.90;;;;;;5074203;28;20211;-45
2023/12/17 05:02:30;;;;;;;13.17;7.47;;;6.90;99.90;;;;;;5073814;28;20215;-44
2023/12/17 05:04:57;;;;;;;15.37;7.60;;;6.90;99.90;;;;;;5073937;28;20190;-43
2023/12/17 05:07:26;;;;;;;12.93;7.83;;;6.90;99.90;;;;;;5073861;28;20175;-44
2023/12/17 05:09:57;;;;;;;13.87;7.60;;;6.90;99.90;;;;;;5074207;28;20199;-44
2023/12/17 05:12:23;;;;;;;14.70;7.83;;;6.90;99.90;;;;;;5074074;28;20176;-45
2023/12/17 05:14:48;;;;;;;15.27;7.50;;;6.80;99.90;;;;;;5073807;28;20198;-45
2023/12/17 05:17:23;;;;;;;12.60;7.93;;;6.80;99.90;;;;;;5074026;28;20545;-44
2023/12/17 05:19:52;;;;;;;12.73;7.07;;;6.80;99.90;;;;;;5073618;28;20206;-45
2023/12/17 05:22:17;;;;;;;13.47;7.60;;;6.80;99.90;;;;;;5073561;28;20176;-45
2023/12/17 05:24:43;;;;;;;13.53;6.70;;;6.80;99.90;;;;;;5056210;28;20549;-45
2023/12/17 05:27:12;;;;;;;16.10;7.87;;;6.80;99.90;;;;;;5056429;28;20689;-44
2023/12/17 05:29:59;;;;;;;14.83;7.07;;;6.80;99.90;;;;;;5073533;28;20540;-43
2023/12/17 05:32:25;;;;;;;14.23;7.73;;;6.80;99.90;;;;;;5073481;28;20179;-44
2023/12/17 05:34:51;;;;;;;15.13;7.53;;;6.70;99.90;;;;;;5073831;28;20198;-44
2023/12/17 05:37:16;;;;;;;12.27;7.50;;;6.80;99.90;;;;;;5073623;28;20259;-46
2023/12/17 05:39:45;;;;;;;15.00;7.00;;;6.70;99.90;;;;;;5073892;28;20203;-46
2023/12/17 05:42:11;;;;;;;13.17;6.97;;;6.70;99.90;;;;;;5073442;28;20679;-44
2023/12/17 05:44:36;;;;;;;11.87;7.53;;;6.70;99.90;;;;;;5073555;28;20201;-43
2023/12/17 05:47:02;;;;;;;13.13;6.83;;;6.70;99.90;;;;;;5073364;28;20608;-43
2023/12/17 05:49:28;;;;;;;13.33;6.50;;;6.70;99.90;;;;;;5073336;28;20671;-43
2023/12/17 05:51:53;;;;;;;14.50;6.97;;;6.70;99.90;;;;;;5055518;28;20554;-43
2023/12/17 05:54:22;;;;;;;11.33;6.50;;;6.70;99.90;;;;;;5073860;28;20267;-44
2023/12/17 05:56:48;;;;;;;10.83;6.63;;;6.70;99.90;;;;;;5073534;28;20210;-44
2023/12/17 05:59:13;;;;;;;11.03;6.77;;;6.70;99.90;;;;;;5073591;28;20211;-43
2023/12/17 06:01:40;;;;;;;11.10;7.00;;;6.70;99.90;;;;;;5073210;28;20191;-42
2023/12/17 06:04:07;;;;;;;11.90;6.70;;;6.60;99.90;;;;;;5073052;28;20298;-44
2023/12/17 06:06:33;;;;;;;11.97;7.17;;;6.70;99.90;;;;;;5055449;28;20233;-43
2023/12/17 06:08:59;;;;;;;10.00;6.83;;;6.60;99.90;;;;;;5073406;28;20184;-45
2023/12/17 06:11:24;;;;;;;13.40;6.77;;;6.60;99.90;;;;;;5073405;28;20185;-44
2023/12/17 06:13:50;;;;;;;13.10;7.20;;;6.60;99.90;;;;;;5074053;28;20182;-44
2023/12/17 06:16:17;;;;;;;12.83;6.73;;;6.60;99.90;;;;;;5055596;28;20179;-42
2023/12/17 06:18:46;;;;;;;12.67;6.90;;;6.60;99.90;;;;;;5073066;28;20186;-45
2023/12/17 06:24:38;;;;;;;10.33;5.80;;;6.60;99.90;;;;;;5073819;28;20690;-44
2023/12/17 06:27:04;;;;;;;11.10;6.57;;;6.50;99.90;;;;;;5074308;28;20191;-45
2023/12/17 06:29:30;;;;;;;12.13;6.30;;;6.50;99.90;;;;;;5074560;28;20199;-45
2023/12/17 06:31:55;;;;;;;9.57;5.93;;;6.50;99.90;;;;;;5074923;28;20183;-44
2023/12/17 06:34:21;;;;;;;8.83;6.17;;;6.50;99.90;;;;;;5074125;28;20182;-45
2023/12/17 06:36:47;;;;;;;11.90;5.93;;;6.50;99.90;;;;;;5055217;28;20190;-44
2023/12/17 06:39:17;;;;;;;13.67;7.53;;;6.40;99.90;;;;;;5055311;28;20207;-44
2023/12/17 06:41:47;;;;;;;11.87;6.37;;;6.40;99.90;;;;;;5073229;28;20206;-45
2023/12/17 06:44:16;;;;;;;13.20;7.37;;;6.40;99.90;;;;;;5059864;28;20231;-44
2023/12/17 06:46:41;;;;;;;13.97;6.67;;;6.40;99.90;;;;;;5076881;28;20546;-43
2023/12/17 06:49:09;;;;;;;10.40;6.93;;;6.40;99.90;;;;;;5076651;28;20204;-44
2023/12/17 06:51:40;;;;;;;13.90;7.10;;;6.40;99.90;;;;;;5056133;28;20253;-43
2023/12/17 06:54:08;;;;;;;11.60;6.67;;;6.30;99.90;;;;;;5076698;28;20210;-43
2023/12/17 06:56:33;;;;;;;11.17;7.00;;;6.30;99.90;;;;;;5076199;28;20202;-45
2023/12/17 06:58:59;;;;;;;8.97;6.70;;;6.30;99.90;;;;;;5058552;28;20211;-45
2023/12/17 07:01:25;;;;;;;10.57;6.60;;;6.30;99.90;;;;;;5058700;28;20217;-43
2023/12/17 07:03:51;;;;;;;10.37;6.20;;;6.30;99.90;;;;;;5076237;28;20223;-44
2023/12/17 07:06:19;;;;;;;12.60;7.43;;;6.30;99.90;;;;;;5076502;28;20207;-45
2023/12/17 07:08:48;;;;;;;14.27;8.00;;;6.30;99.90;;;;;;5076177;28;20207;-44
2023/12/17 07:11:13;;;;;;;13.03;7.90;;;6.30;99.90;;;;;;5058358;28;20600;-44
2023/12/17 07:13:40;;;;;;;13.93;8.40;;;6.30;99.90;;;;;;5076380;28;20171;-44
2023/12/17 07:16:10;;;;;;;14.60;8.60;;;6.20;99.90;;;;;;5076293;28;20180;-46
2023/12/17 07:18:41;;;;;;;17.17;8.80;;;6.20;99.90;;;;;;5058416;28;20244;-45
2023/12/17 07:21:07;;;;;;;14.30;8.40;;;6.30;99.90;;;;;;5075983;28;20184;-45
2023/12/17 07:23:36;;;;;;;15.27;8.20;;;6.20;99.90;;;;;;5075878;28;20203;-43
2023/12/17 07:26:01;;;;;;;15.73;7.60;;;6.30;99.90;;;;;;5075922;28;20636;-45
2023/12/17 07:28:30;;;;;;;15.03;8.67;;;6.30;99.90;;;;;;5076128;28;20217;-44
2023/12/17 07:31:08;;;;;;;15.13;8.80;;;6.20;99.90;;;;;;5076149;28;20199;-43
2023/12/17 07:33:37;;;;;;;12.77;7.53;;;6.30;99.90;;;;;;5075615;28;20218;-44
2023/12/17 07:36:05;;;;;;;13.90;8.73;;;6.20;99.90;;;;;;5075916;28;20191;-44
2023/12/17 07:38:34;;;;;;;13.63;7.97;;;6.20;99.90;;;;;;5076034;28;20294;-44
2023/12/17 07:40:59;;;;;;;12.00;8.00;;;6.20;99.90;;;;;;5075584;28;20214;-45
2023/12/17 07:43:25;;;;;;;13.67;8.23;;;6.20;99.90;;;;;;5075562;28;20204;-44
2023/12/17 07:45:59;;;;;;;12.73;8.10;;;6.20;99.90;;;;;;5075973;28;20179;-43
2023/12/17 07:48:25;;;;;;;16.83;8.57;;;6.20;99.90;;;;;;5057799;28;20181;-43
2023/12/17 07:50:54;;;;;;;12.80;8.07;;;6.20;99.90;;;;;;5075976;28;20200;-44
2023/12/17 07:53:23;;;;;;;14.93;8.53;;;6.20;99.90;;;;;;5076031;28;20262;-43
2023/12/17 07:55:50;;;;;;;13.37;8.43;;;6.20;99.90;;;;;;5076798;28;20190;-45
2023/12/17 07:58:26;;;;;;;13.77;8.30;;;6.20;99.90;;;;;;5074900;28;20659;-42
2023/12/17 08:00:52;;;;;;;19.03;8.33;;;6.20;99.90;;;;;;5075147;28;20199;-45
2023/12/17 08:06:40;;;;;;;13.03;7.77;;;6.20;99.90;;;;;;5075139;28;20167;-43
2023/12/17 08:09:06;;;;;;;15.23;9.87;;;6.20;99.90;;;;;;5075042;28;20229;-45
2023/12/17 08:12:21;;;;;;;16.37;9.53;;;6.20;99.90;;;;;;5075126;28;20655;-45
2023/12/17 08:14:47;;;;;;;15.67;9.40;;;6.20;99.90;;;;;;5075701;28;20538;-44
2023/12/17 08:17:13;;;;;;;12.93;9.17;;;6.20;99.90;;;;;;5075592;28;20258;-44
2023/12/17 08:19:42;;;;;;;13.87;8.17;;;6.10;99.90;;;;;;5074804;28;20652;-44
2023/12/17 08:22:11;;;;;;;13.00;8.73;;;6.20;99.90;;;;;;5074242;28;20206;-46
2023/12/17 08:24:38;;;;;;;14.40;8.67;;;6.20;99.90;;;;;;5075260;28;20236;-44
2023/12/17 08:27:05;;;;;;;15.40;8.83;;;6.20;99.90;;;;;;5075014;28;20263;-45
2023/12/17 08:29:37;;;;;;;14.23;9.20;;;6.20;99.90;;;;;;5074705;28;20208;-45
2023/12/17 08:32:04;;;;;;;13.83;8.93;;;6.20;99.90;;;;;;5074878;28;20218;-45
2023/12/17 08:34:32;;;;;;;14.40;8.53;;;6.20;99.90;;;;;;5074855;28;20179;-44
2023/12/17 08:36:58;;;;;;;12.20;8.20;;;6.20;99.90;;;;;;5074814;28;20233;-43
2023/12/17 08:39:25;;;;;;;11.43;7.60;;;6.20;99.90;;;;;;5074400;28;20202;-44
2023/12/17 08:41:51;;;;;;;10.33;7.23;;;6.30;99.90;;;;;;5069368;28;20203;-44
2023/12/17 08:44:25;;;;;;;13.97;7.33;;;6.30;99.90;;;;;;5074322;28;20207;-44
2023/12/17 08:46:52;;;;;;;10.70;7.67;;;6.30;99.90;;;;;;5074753;28;20246;-45
2023/12/17 08:49:18;;;;;;;11.23;7.37;;;6.30;99.90;;;;;;5074658;28;20686;-42
2023/12/17 08:51:45;;;;;;;12.93;7.70;;;6.30;99.90;;;;;;5074622;28;20191;-45
2023/12/17 08:54:13;;;;;;;13.10;7.93;;;6.30;99.90;;;;;;5073366;28;20201;-44
2023/12/17 08:56:43;;;;;;;10.83;7.37;;;6.30;99.90;;;;;;5074242;28;20202;-43
2023/12/17 08:59:12;;;;;;;11.97;6.93;;;6.30;99.90;;;;;;5074152;28;20207;-45
2023/12/17 09:01:38;;;;;;;11.90;8.20;;;6.30;99.90;;;;;;5074322;28;20260;-42
2023/12/17 09:04:57;;;;;;;13.13;8.70;;;6.30;99.90;;;;;;5073954;28;20698;-45
2023/12/17 09:07:24;;;;;;;16.00;10.20;;;6.30;99.90;;;;;;5073320;28;20199;-43
2023/12/17 09:09:50;;;;;;;15.50;10.47;;;6.30;99.90;;;;;;5073855;28;20204;-44
2023/12/17 09:12:16;;;;;;;18.90;12.00;;;6.30;99.90;;;;;;5074037;28;20175;-44
2023/12/17 09:14:42;;;;;;;19.03;12.60;;;6.30;99.90;;;;;;5057401;28;20180;-43
2023/12/17 09:17:10;;;;;;;23.63;14.07;;;6.40;99.90;;;;;;5076484;28;20180;-44
2023/12/17 09:19:37;;;;;;;23.73;13.67;;;6.40;99.90;;;;;;5073932;28;20199;-43
2023/12/17 09:25:27;;;;;;;21.17;13.57;;;6.40;99.90;;;;;;5074044;28;20213;-44
2023/12/17 09:27:54;;;;;;;23.30;13.73;;;6.40;99.90;;;;;;5073966;28;20197;-44
2023/12/17 09:30:22;;;;;;;18.50;11.90;;;6.40;99.90;;;;;;5073820;28;20286;-44
2023/12/17 09:33:35;;;;;;;18.63;11.87;;;6.40;99.90;;;;;;5073871;28;20539;-44
2023/12/17 09:36:07;;;;;;;15.63;10.80;;;6.40;99.90;;;;;;5073651;28;20179;-45
2023/12/17 09:38:32;;;;;;;17.70;11.17;;;6.40;99.90;;;;;;5073898;28;20160;-44
2023/12/17 09:40:58;;;;;;;16.43;11.10;;;6.40;99.90;;;;;;5073937;28;20192;-45
2023/12/17 09:43:27;;;;;;;16.57;11.30;;;6.40;99.90;;;;;;5073258;28;20203;-43
2023/12/17 09:45:53;;;;;;;15.67;11.03;;;6.40;99.90;;;;;;5073780;28;20519;-45
2023/12/17 09:48:20;;;;;;;16.30;11.10;;;6.40;99.90;;;;;;5073505;28;20163;-45
2023/12/17 09:50:47;;;;;;;19.97;12.87;;;6.40;99.90;;;;;;5055434;28;20218;-44
2023/12/17 09:53:40;;;;;;;18.10;11.57;;;6.50;99.90;;;;;;5073912;28;20617;-44
2023/12/17 09:56:12;;;;;;;15.60;10.27;;;6.40;99.90;;;;;;5073312;28;20211;-44
2023/12/17 09:58:38;;;;;;;12.10;7.50;;;6.40;99.90;;;;;;5070898;28;20675;-44
2023/12/17 10:01:10;;;;;;;12.80;8.77;;;6.40;99.90;;;;;;5074032;28;20207;-44
2023/12/17 10:03:36;;;;;;;12.33;9.17;;;6.50;99.90;;;;;;5073499;28;20203;-46
2023/12/17 10:06:05;;;;;;;14.27;10.80;;;6.50;99.90;;;;;;5073568;28;20187;-44
2023/12/17 10:08:35;;;;;;;12.10;8.10;;;6.50;99.90;;;;;;5073118;28;20203;-44
2023/12/17 10:11:00;;;;;;;11.13;7.27;;;6.50;99.90;;;;;;5073035;28;20230;-44
2023/12/17 10:13:26;;;;;;;13.53;7.10;;;6.50;99.90;;;;;;5073097;28;20202;-45
2023/12/17 10:15:55;;;;;;;10.93;5.87;;;6.50;99.90;;;;;;5073474;28;20211;-43
2023/12/17 10:18:22;;;;;;;10.20;6.63;;;6.50;99.90;;;;;;5076305;28;20245;-42
2023/12/17 10:20:49;;;;;;;10.10;6.33;;;6.50;99.90;;;;;;5078120;28;20203;-43
2023/12/17 10:23:16;;;;;;;9.97;6.27;;;6.50;99.90;;;;;;5076916;28;20566;-43
2023/12/17 10:25:43;;;;;;;7.93;5.50;;;6.50;99.90;;;;;;5077135;28;20187;-43
2023/12/17 10:28:14;;;;;;;10.23;5.80;;;6.50;99.90;;;;;;5077033;28;20172;-44
2023/12/17 10:30:41;;;;;;;9.20;6.73;;;6.60;99.90;;;;;;5077571;28;20264;-43
2023/12/17 10:33:19;;;;;;;9.77;5.67;;;6.60;99.90;;;;;;5078410;28;20659;-43
2023/12/17 10:35:45;;;;;;;8.03;5.37;;;6.60;99.90;;;;;;5058519;28;20198;-43
2023/12/17 10:38:14;;;;;;;8.47;6.20;;;6.60;99.90;;;;;;5076834;28;20180;-43
2023/12/17 10:40:41;;;;;;;11.27;7.50;;;6.60;99.90;;;;;;5042291;28;20211;-44
2023/12/17 10:43:14;;;;;;;10.53;6.87;;;6.70;99.90;;;;;;5060782;28;20741;-44
2023/12/17 10:45:43;;;;;;;11.27;6.50;;;6.70;99.90;;;;;;5076530;28;20714;-42
2023/12/17 10:48:15;;;;;;;9.33;6.20;;;6.80;99.90;;;;;;5076923;28;20181;-43
2023/12/17 10:50:42;;;;;;;9.67;5.80;;;6.80;99.90;;;;;;5076588;28;20245;-44
2023/12/17 10:53:08;;;;;;;12.97;6.10;;;6.90;99.90;;;;;;5076130;28;20652;-44
2023/12/17 10:55:40;;;;;;;8.43;5.77;;;7.00;99.90;;;;;;5058546;28;20213;-44
2023/12/17 10:58:18;;;;;;;10.63;6.13;;;7.00;99.90;;;;;;5076462;28;20186;-43
2023/12/17 11:00:44;;;;;;;9.33;6.07;;;7.10;99.90;;;;;;5076434;28;20207;-43
2023/12/17 11:03:17;;;;;;;11.80;6.40;;;7.20;99.90;;;;;;5076108;28;20235;-45
2023/12/17 11:05:58;;;;;;;8.67;6.27;;;7.30;99.90;;;;;;5075938;28;20209;-43
2023/12/17 11:08:25;;;;;;;11.40;5.73;;;7.30;99.90;;;;;;5076159;28;20207;-44
2023/12/17 11:10:53;;;;;;;11.70;6.90;;;7.30;99.90;;;;;;5058128;28;20333;-44
2023/12/17 11:13:23;;;;;;;17.87;6.90;;;7.30;99.90;;;;;;5076147;28;20176;-43
2023/12/17 11:15:49;;;;;;;11.60;6.50;;;7.30;99.90;;;;;;5076386;28;20233;-44
2023/12/17 11:18:23;;;;;;;14.07;7.47;;;7.50;99.90;;;;;;5058149;28;20199;-43
2023/12/17 11:20:53;;;;;;;14.53;7.10;;;7.50;99.90;;;;;;5058589;28;20195;-44
2023/12/17 11:23:19;;;;;;;15.10;6.73;;;7.50;99.90;;;;;;5075826;28;20353;-45
2023/12/17 11:25:48;;;;;;;13.70;6.53;;;7.60;99.90;;;;;;5058167;28;20196;-42
2023/12/17 11:28:25;;;;;;;16.07;7.73;;;7.60;99.90;;;;;;5075484;28;20189;-43
2023/12/17 11:30:59;;;;;;;12.50;7.33;;;7.60;99.90;;;;;;5057765;28;20215;-43
2023/12/17 11:33:25;;;;;;;14.40;6.97;;;7.70;99.90;;;;;;5075941;28;20178;-43
2023/12/17 11:35:51;;;;;;;14.00;7.63;;;7.70;99.90;;;;;;5074729;28;20566;-43
2023/12/17 11:38:17;;;;;;;17.07;8.27;;;7.80;99.90;;;;;;5057804;28;20636;-45
2023/12/17 11:40:45;;;;;;;14.67;7.27;;;7.80;99.90;;;;;;5075773;28;20213;-42
2023/12/17 11:43:10;;;;;;;18.60;7.80;;;7.80;99.90;;;;;;5075199;28;20288;-44
2023/12/17 11:45:44;;;;;;;14.83;7.57;;;7.90;99.90;;;;;;5075579;28;20615;-43
2023/12/17 11:48:14;;;;;;;16.53;7.50;;;7.90;99.90;;;;;;5040559;28;20271;-42
2023/12/17 11:50:55;;;;;;;13.50;7.00;;;8.00;99.90;;;;;;5075836;28;20199;-42
2023/12/17 11:53:26;;;;;;;13.37;6.80;;;8.00;99.90;;;;;;5075840;28;20520;-43
2023/12/17 11:56:13;;;;;;;11.60;6.40;;;8.10;99.90;;;;;;5058104;28;20655;-43
2023/12/17 11:58:47;;;;;;;12.60;6.57;;;8.10;99.90;;;;;;5075629;28;20556;-43
2023/12/17 12:01:15;;;;;;;13.53;6.23;;;8.20;99.90;;;;;;5064643;28;20329;-44
2023/12/17 12:03:41;;;;;;;15.47;6.93;;;8.20;99.90;;;;;;5057473;28;20662;-42
2023/12/17 12:06:15;;;;;;;12.23;6.27;;;8.20;99.90;;;;;;5072936;28;20188;-45
2023/12/17 12:08:48;;;;;;;17.07;6.77;;;8.30;99.90;;;;;;5075049;28;20199;-44
2023/12/17 12:11:18;;;;;;;12.63;6.37;;;8.40;99.90;;;;;;5075726;28;20616;-44
2023/12/17 12:13:48;;;;;;;14.60;6.17;;;8.40;99.90;;;;;;5074690;28;20198;-43
2023/12/17 12:16:20;;;;;;;15.37;6.67;;;8.40;99.90;;;;;;5074877;28;20340;-43
2023/12/17 12:18:46;;;;;;;13.37;5.73;;;8.50;99.90;;;;;;5074870;28;20174;-44
2023/12/17 12:21:21;;;;;;;18.53;5.87;;;8.50;99.90;;;;;;5075030;28;20185;-43
2023/12/17 12:23:57;;;;;;;16.17;5.53;;;8.50;99.90;;;;;;5074670;28;20601;-43
2023/12/17 12:26:24;;;;;;;13.47;6.47;;;8.60;99.90;;;;;;5074834;28;20178;-43
2023/12/17 12:28:59;;;;;;;9.40;5.40;;;8.60;99.90;;;;;;5074959;28;20264;-43
2023/12/17 12:31:27;;;;;;;17.43;6.17;;;8.70;99.90;;;;;;5074733;28;20206;-46
2023/12/17 12:34:13;;;;;;;11.57;5.23;;;8.70;99.90;;;;;;5074658;28;20186;-45
2023/12/17 12:36:47;;;;;;;10.37;5.00;;;8.80;99.90;;;;;;5074049;28;20194;-44
2023/12/17 12:39:14;;;;;;;14.63;5.77;;;8.80;99.90;;;;;;5074017;28;20246;-44
2023/12/17 12:41:49;;;;;;;17.13;5.33;;;8.90;99.90;;;;;;5074370;28;20179;-44
2023/12/17 12:44:16;;;;;;;13.27;4.37;;;9.00;99.90;;;;;;5057418;28;20207;-42
2023/12/17 12:46:47;;;;;;;15.47;4.50;;;9.00;99.90;;;;;;5074436;28;20183;-43
2023/12/17 12:49:12;;;;;;;14.23;5.00;;;9.10;99.90;;;;;;5056573;28;20738;-44
2023/12/17 12:51:42;;;;;;;13.90;4.97;;;9.10;99.90;;;;;;5074499;28;20223;-44
2023/12/17 12:54:48;;;;;;;11.97;4.40;;;9.20;99.90;;;;;;5074575;28;20245;-44
2023/12/17 13:00:20;;;;;;;14.27;4.77;;;9.30;99.90;;;;;;5074431;28;20246;-42
2023/12/17 13:02:46;;;;;;;17.10;4.87;;;9.30;99.90;;;;;;5073897;28;20612;-44
2023/12/17 13:05:13;;;;;;;10.43;4.17;;;9.40;99.90;;;;;;5074334;28;20190;-43
2023/12/17 13:11:06;;;;;;;6.93;3.63;;;9.40;99.90;;;;;;5073686;28;20252;-43
2023/12/17 13:13:33;;;;;;;12.03;4.40;;;9.40;99.90;;;;;;5073820;28;20186;-44
2023/12/17 13:15:59;;;;;;;15.03;4.57;;;9.50;99.90;;;;;;5073882;28;20184;-45
2023/12/17 13:18:26;;;;;;;14.73;4.37;;;9.50;99.90;;;;;;5074310;28;20190;-44
2023/12/17 13:20:53;;;;;;;7.37;3.63;;;9.50;99.90;;;;;;5074034;28;20215;-44
2023/12/17 13:23:32;;;;;;;16.10;4.33;;;9.60;99.90;;;;;;5073267;28;20219;-44
2023/12/17 13:25:57;;;;;;;11.37;4.00;;;9.60;99.90;;;;;;5073644;28;20179;-43